Time;durP1;ratioP1;P1;durP2;ratioP2;P2;SDS_P1;SDS_P2;PMS_P1;PMS_P2;Temp;Humidity;BMP_temperature;BMP_pressure;BME280_temperature;BME280_humidity;BME280_pressure;Samples;Min_cycle;Max_cycle;Signal;HPM_P1;HPM_P2
2023/12/25 00:02:20;;;;;;;255.65;179.32;;;;;;;11.83;100.00;97305.41;5055199;28;20121;-56
2023/12/25 00:04:46;;;;;;;101.70;80.05;;;;;;;12.64;100.00;97313.31;5050754;28;20074;-55
2023/12/25 00:07:11;;;;;;;70.68;29.55;;;;;;;12.21;100.00;97309.91;5056906;28;20033;-56
2023/12/25 00:09:36;;;;;;;298.88;234.65;;;;;;;12.82;100.00;97300.75;5056193;28;20411;-56
2023/12/25 00:12:02;;;;;;;125.55;63.40;;;;;;;12.42;100.00;97303.38;5056042;28;20109;-57
2023/12/25 00:14:27;;;;;;;316.33;232.25;;;;;;;12.87;100.00;97293.66;5056015;28;20024;-56
2023/12/25 00:16:52;;;;;;;117.88;58.28;;;;;;;12.00;100.00;97309.44;5055508;28;20033;-55
2023/12/25 00:19:18;;;;;;;283.58;209.77;;;;;;;12.17;100.00;97293.47;5056162;28;20226;-56
2023/12/25 00:21:43;;;;;;;273.75;194.07;;;;;;;12.20;100.00;97287.31;5054102;28;20036;-57
2023/12/25 00:24:08;;;;;;;151.93;112.25;;;;;;;11.57;100.00;97308.47;5055691;28;20098;-57
2023/12/25 00:26:34;;;;;;;229.85;140.27;;;;;;;11.75;100.00;97309.03;5051625;28;20049;-56
2023/12/25 00:28:59;;;;;;;309.15;166.63;;;;;;;12.17;100.00;97301.28;5057417;28;20048;-56
2023/12/25 00:31:25;;;;;;;285.42;224.70;;;;;;;12.82;100.00;97298.13;5052964;28;20358;-56
2023/12/25 00:33:50;;;;;;;195.77;163.27;;;;;;;12.86;100.00;97295.44;5055692;28;20023;-55
2023/12/25 00:36:15;;;;;;;150.20;111.47;;;;;;;12.47;100.00;97296.28;5056368;28;20525;-55
2023/12/25 00:38:41;;;;;;;348.60;243.20;;;;;;;12.66;100.00;97305.47;5056192;28;20032;-55
2023/12/25 00:41:06;;;;;;;125.50;61.67;;;;;;;13.10;100.00;97306.16;5056134;28;20511;-56
2023/12/25 00:43:32;;;;;;;149.93;84.65;;;;;;;13.48;100.00;97294.81;5056600;28;20116;-55
2023/12/25 00:45:58;;;;;;;116.88;59.95;;;;;;;12.49;100.00;97314.53;5054868;28;20063;-56
2023/12/25 00:48:23;;;;;;;143.45;103.13;;;;;;;12.83;100.00;97308.53;5055425;28;20024;-55
2023/12/25 00:50:49;;;;;;;176.07;146.75;;;;;;;11.91;100.00;97309.63;5056574;28;20036;-55
2023/12/25 00:53:14;;;;;;;278.55;249.90;;;;;;;12.50;100.00;97316.22;5055183;28;20124;-56
2023/12/25 00:55:39;;;;;;;417.40;283.27;;;;;;;13.31;100.00;97310.88;5056180;28;20044;-56
2023/12/25 00:58:05;;;;;;;291.75;262.50;;;;;;;12.59;100.00;97307.34;5060089;28;20025;-55
2023/12/25 01:00:30;;;;;;;318.95;284.02;;;;;;;13.01;100.00;97299.41;5056873;28;20039;-55
2023/12/25 01:02:56;;;;;;;211.50;186.68;;;;;;;12.61;100.00;97301.22;5058591;28;20027;-55
2023/12/25 01:05:21;;;;;;;328.08;294.63;;;;;;;12.94;100.00;97294.38;5058820;28;20067;-56
2023/12/25 01:07:46;;;;;;;269.88;194.68;;;;;;;12.41;100.00;97295.56;5056055;28;20107;-55
2023/12/25 01:10:12;;;;;;;153.55;96.57;;;;;;;12.44;100.00;97293.75;5056888;28;20016;-54
2023/12/25 01:12:37;;;;;;;244.77;188.13;;;;;;;13.33;100.00;97291.66;5056516;28;20097;-54
2023/12/25 01:15:03;;;;;;;323.67;236.63;;;;;;;13.00;100.00;97313.34;5057334;28;20017;-55
2023/12/25 01:17:28;;;;;;;164.55;81.72;;;;;;;12.86;100.00;97310.22;5053990;28;20102;-54
2023/12/25 01:19:53;;;;;;;109.75;33.85;;;;;;;13.11;100.00;97301.81;5057171;28;20016;-56
2023/12/25 01:22:19;;;;;;;124.13;66.50;;;;;;;12.64;100.00;97315.94;5056384;28;20041;-56
2023/12/25 01:24:45;;;;;;;288.17;178.25;;;;;;;13.25;100.00;97309.31;5055609;28;20039;-55
2023/12/25 01:27:10;;;;;;;156.10;103.78;;;;;;;12.98;100.00;97319.50;5037594;28;20193;-55
2023/12/25 01:29:36;;;;;;;196.98;139.93;;;;;;;12.90;100.00;97319.69;5056568;28;20086;-55
2023/12/25 01:32:01;;;;;;;141.30;100.60;;;;;;;13.02;100.00;97305.47;5054643;28;20036;-56
2023/12/25 01:34:26;;;;;;;191.73;140.00;;;;;;;13.23;100.00;97318.91;5056012;28;20023;-55
2023/12/25 01:36:52;;;;;;;145.05;88.47;;;;;;;13.64;100.00;97324.88;5055775;28;20039;-55
2023/12/25 01:39:17;;;;;;;231.75;156.63;;;;;;;13.07;100.00;97321.88;5056715;28;20031;-56
2023/12/25 01:41:42;;;;;;;175.25;154.10;;;;;;;12.72;100.00;97326.19;5055223;28;20036;-54
2023/12/25 01:44:08;;;;;;;205.00;129.95;;;;;;;12.54;100.00;97328.31;5055409;28;20468;-56
2023/12/25 01:46:34;;;;;;;261.92;171.13;;;;;;;13.62;100.00;97315.34;5055408;28;20041;-54
2023/12/25 01:48:59;;;;;;;249.27;185.63;;;;;;;13.63;100.00;97310.06;5053532;28;20028;-55
2023/12/25 01:51:25;;;;;;;294.48;245.02;;;;;;;13.54;100.00;97315.53;5054967;28;20094;-55
2023/12/25 01:53:52;;;;;;;228.43;182.55;;;;;;;13.32;100.00;97316.06;5055442;28;20437;-55
2023/12/25 01:56:18;;;;;;;280.65;231.05;;;;;;;13.41;100.00;97313.22;5055635;28;20040;-55
2023/12/25 01:58:43;;;;;;;279.33;216.25;;;;;;;13.71;100.00;97317.72;5057376;28;20464;-55
2023/12/25 02:01:09;;;;;;;332.15;257.55;;;;;;;13.65;100.00;97321.34;5056144;28;20694;-54
2023/12/25 02:03:34;;;;;;;350.80;283.20;;;;;;;13.63;100.00;97315.28;5055769;28;20661;-54
2023/12/25 02:06:00;;;;;;;448.38;292.60;;;;;;;14.26;100.00;97319.66;5055966;28;20498;-55
2023/12/25 02:08:27;;;;;;;269.55;238.02;;;;;;;13.65;100.00;97310.91;5053741;28;20158;-54
2023/12/25 02:10:53;;;;;;;120.57;53.47;;;;;;;13.36;100.00;97327.31;5055635;28;20062;-55
2023/12/25 02:13:18;;;;;;;212.23;154.07;;;;;;;13.53;100.00;97311.22;5056265;28;20025;-54
2023/12/25 02:15:44;;;;;;;95.07;42.25;;;;;;;13.19;100.00;97322.50;5055108;28;20458;-54
2023/12/25 02:18:10;;;;;;;176.07;133.50;;;;;;;13.04;100.00;97310.66;5055885;28;20109;-54
2023/12/25 02:20:35;;;;;;;326.13;215.13;;;;;;;12.79;100.00;97325.16;5054289;28;20585;-54
2023/12/25 02:23:05;;;;;;;168.90;125.50;;;;;;;12.49;100.00;97319.75;5056635;28;20020;-55
2023/12/25 02:25:33;;;;;;;305.63;244.18;;;;;;;13.44;100.00;97321.88;5054168;28;20032;-55
2023/12/25 02:28:00;;;;;;;311.98;266.58;;;;;;;12.94;100.00;97307.41;5055589;28;20301;-56
2023/12/25 02:30:25;;;;;;;174.70;135.02;;;;;;;13.11;100.00;97323.53;5054571;28;20098;-54
2023/12/25 02:32:51;;;;;;;369.55;296.20;;;;;;;12.92;100.00;97337.94;5054582;28;20450;-54
2023/12/25 02:35:16;;;;;;;148.90;93.40;;;;;;;13.05;100.00;97328.03;5056493;28;20538;-55
2023/12/25 02:37:41;;;;;;;251.52;201.52;;;;;;;13.05;100.00;97339.34;5055217;28;20466;-54
2023/12/25 02:40:07;;;;;;;333.17;245.43;;;;;;;12.76;100.00;97346.97;5054975;28;20044;-56
2023/12/25 02:42:33;;;;;;;202.07;123.90;;;;;;;13.18;100.00;97344.28;5054040;28;20034;-54
2023/12/25 02:44:58;;;;;;;125.78;49.40;;;;;;;13.52;100.00;97333.03;5056344;28;20332;-55
2023/12/25 02:47:23;;;;;;;105.90;44.90;;;;;;;12.58;100.00;97335.19;5054731;28;20519;-54
2023/12/25 02:49:49;;;;;;;90.97;21.27;;;;;;;12.43;100.00;97349.41;5054118;28;20417;-55
2023/12/25 02:52:14;;;;;;;132.10;89.80;;;;;;;12.40;100.00;97340.81;5055720;28;20646;-55
2023/12/25 02:54:39;;;;;;;171.88;125.05;;;;;;;12.30;100.00;97340.13;5053654;28;20033;-54
2023/12/25 02:57:05;;;;;;;108.65;57.40;;;;;;;12.50;100.00;97337.09;5054935;28;20125;-54
2023/12/25 02:59:30;;;;;;;356.88;205.32;;;;;;;13.13;100.00;97328.72;5053591;28;20021;-55
2023/12/25 03:01:55;;;;;;;125.57;82.18;;;;;;;12.58;100.00;97331.72;5053924;28;20464;-55
2023/12/25 03:04:21;;;;;;;323.13;284.85;;;;;;;12.52;100.00;97329.25;5056233;28;20047;-54
2023/12/25 03:06:46;;;;;;;94.07;42.85;;;;;;;12.27;100.00;97319.31;5055184;28;21384;-55
2023/12/25 03:09:11;;;;;;;245.55;165.07;;;;;;;12.60;100.00;97309.94;5054010;28;20512;-55
2023/12/25 03:11:37;;;;;;;134.73;46.53;;;;;;;12.41;100.00;97319.91;5053785;28;20091;-55
2023/12/25 03:14:02;;;;;;;119.20;56.83;;;;;;;12.28;100.00;97319.31;5055314;28;20028;-55
2023/12/25 03:16:28;;;;;;;239.02;197.88;;;;;;;12.41;100.00;97322.53;5054293;28;20028;-54
2023/12/25 03:18:53;;;;;;;176.55;114.15;;;;;;;12.55;100.00;97314.38;5054272;28;20586;-55
2023/12/25 03:21:18;;;;;;;145.27;111.72;;;;;;;11.95;100.00;97334.72;5054674;28;20036;-55
2023/12/25 03:23:44;;;;;;;219.45;156.63;;;;;;;12.25;100.00;97337.59;5053183;28;20545;-54
2023/12/25 03:26:09;;;;;;;298.88;206.43;;;;;;;12.48;100.00;97336.28;5055188;28;20052;-55
2023/12/25 03:28:34;;;;;;;190.65;111.13;;;;;;;11.83;100.00;97347.09;5052954;28;20043;-55
2023/12/25 03:31:00;;;;;;;102.05;35.90;;;;;;;12.15;100.00;97347.38;5053576;28;20366;-54
2023/12/25 03:33:25;;;;;;;168.93;137.15;;;;;;;12.52;100.00;97340.53;5055370;28;20036;-56
2023/12/25 03:35:50;;;;;;;209.30;151.00;;;;;;;13.12;100.00;97348.75;5052538;28;20035;-55
2023/12/25 03:38:17;;;;;;;230.23;201.05;;;;;;;12.58;100.00;97335.19;5054537;28;20063;-57
2023/12/25 03:40:43;;;;;;;189.90;132.50;;;;;;;12.13;100.00;97336.13;5051650;28;20040;-54
2023/12/25 03:43:08;;;;;;;208.38;156.15;;;;;;;11.86;100.00;97335.75;5053669;28;20059;-54
2023/12/25 03:45:33;;;;;;;319.40;207.85;;;;;;;12.07;100.00;97342.31;5053249;28;20079;-55
2023/12/25 03:47:58;;;;;;;90.30;24.80;;;;;;;11.40;100.00;97350.47;5055426;28;20028;-55
2023/12/25 03:50:24;;;;;;;165.30;137.85;;;;;;;11.71;100.00;97345.56;5052231;28;20428;-54
2023/12/25 03:52:49;;;;;;;204.73;147.02;;;;;;;11.96;100.00;97349.47;5052976;28;20363;-55
2023/12/25 03:55:15;;;;;;;140.80;89.35;;;;;;;11.93;100.00;97355.59;5054250;28;20017;-54
2023/12/25 03:57:40;;;;;;;125.63;34.55;;;;;;;11.44;100.00;97355.56;5054895;28;20024;-54
2023/12/25 04:00:06;;;;;;;194.70;121.38;;;;;;;11.67;100.00;97345.66;5053029;28;20039;-55
2023/12/25 04:02:31;;;;;;;149.38;111.50;;;;;;;12.31;100.00;97347.06;5053993;28;20032;-55
2023/12/25 04:04:57;;;;;;;111.50;26.45;;;;;;;11.51;100.00;97352.88;5053699;28;20031;-56
2023/12/25 04:07:22;;;;;;;93.30;24.48;;;;;;;11.89;100.00;97346.13;5053228;28;20068;-55
2023/12/25 04:09:47;;;;;;;166.13;67.53;;;;;;;11.44;100.00;97344.31;5052656;28;20044;-54
2023/12/25 04:12:13;;;;;;;318.63;226.23;;;;;;;12.94;100.00;97333.50;5054040;28;20038;-55
2023/12/25 04:14:39;;;;;;;315.70;231.13;;;;;;;12.23;100.00;97327.25;5053824;28;20388;-54
2023/12/25 04:17:04;;;;;;;142.07;96.15;;;;;;;11.76;100.00;97329.00;5053429;28;20048;-56
2023/12/25 04:19:30;;;;;;;100.30;44.70;;;;;;;11.27;100.00;97340.25;5053892;28;20324;-55
2023/12/25 04:21:55;;;;;;;89.43;17.00;;;;;;;11.29;100.00;97335.03;5051864;28;20672;-54
2023/12/25 04:24:21;;;;;;;96.00;30.42;;;;;;;11.84;100.00;97338.38;5053004;28;20024;-56
2023/12/25 04:26:46;;;;;;;127.05;48.28;;;;;;;11.52;100.00;97339.84;5052300;28;20620;-57
2023/12/25 04:29:11;;;;;;;103.28;13.40;;;;;;;11.77;100.00;97338.53;5054222;28;20456;-55
2023/12/25 04:31:37;;;;;;;108.20;12.65;;;;;;;11.77;100.00;97343.75;5052362;28;20036;-54
2023/12/25 04:34:02;;;;;;;121.68;56.55;;;;;;;11.80;100.00;97348.91;5058444;28;20320;-55
2023/12/25 04:36:28;;;;;;;157.07;106.55;;;;;;;11.96;100.00;97347.69;5055920;28;20119;-56
2023/12/25 04:38:53;;;;;;;100.28;17.85;;;;;;;11.83;100.00;97362.72;5055808;28;20074;-57
2023/12/25 04:41:22;;;;;;;93.13;42.38;;;;;;;11.70;100.00;97362.06;5057784;28;20051;-57
2023/12/25 04:43:48;;;;;;;318.23;230.02;;;;;;;12.58;100.00;97360.44;5057027;28;20063;-55
2023/12/25 04:46:13;;;;;;;194.98;145.15;;;;;;;12.04;100.00;97344.97;5056737;28;20540;-56
2023/12/25 04:48:38;;;;;;;170.70;67.10;;;;;;;12.08;100.00;97351.00;5054980;28;20028;-55
2023/12/25 04:51:04;;;;;;;95.40;41.45;;;;;;;12.28;100.00;97362.78;5047960;28;20086;-55
2023/12/25 04:53:31;;;;;;;92.10;31.92;;;;;;;12.74;100.00;97353.13;5057753;28;20352;-55
2023/12/25 04:55:57;;;;;;;141.45;72.25;;;;;;;12.17;100.00;97356.03;5055417;28;20039;-55
2023/12/25 04:58:22;;;;;;;150.75;81.97;;;;;;;12.46;100.00;97349.34;5056776;28;20024;-54
2023/12/25 05:00:48;;;;;;;166.38;74.32;;;;;;;11.88;100.00;97348.75;5055932;28;20514;-56
2023/12/25 05:03:13;;;;;;;134.10;78.28;;;;;;;12.05;100.00;97357.13;5056871;28;20024;-55
2023/12/25 05:05:38;;;;;;;238.15;148.52;;;;;;;12.22;100.00;97346.34;5056324;28;20040;-56
2023/12/25 05:08:04;;;;;;;182.80;121.65;;;;;;;11.72;100.00;97364.66;5056310;28;20025;-54
2023/12/25 05:10:29;;;;;;;82.18;14.10;;;;;;;11.46;100.00;97352.94;5056294;28;20039;-55
2023/12/25 05:12:55;;;;;;;167.27;95.93;;;;;;;11.61;100.00;97341.41;5055166;28;20056;-56
2023/12/25 05:15:20;;;;;;;207.00;140.45;;;;;;;11.49;100.00;97347.69;5056855;28;20028;-55
2023/12/25 05:17:45;;;;;;;113.07;13.63;;;;;;;11.29;100.00;97358.44;5056267;28;20028;-55
2023/12/25 05:20:10;;;;;;;113.38;39.33;;;;;;;11.13;100.00;97352.66;5054876;28;20032;-56
2023/12/25 05:22:36;;;;;;;307.23;252.20;;;;;;;11.96;100.00;97350.31;5054645;28;20031;-56
2023/12/25 05:25:01;;;;;;;86.43;21.92;;;;;;;12.26;100.00;97359.34;5055740;28;20017;-55
2023/12/25 05:27:28;;;;;;;179.38;108.88;;;;;;;11.99;100.00;97362.41;5056831;28;20047;-56
2023/12/25 05:29:53;;;;;;;183.02;137.15;;;;;;;11.57;100.00;97364.06;5055210;28;20021;-56
2023/12/25 05:32:19;;;;;;;97.22;27.00;;;;;;;11.61;100.00;97372.66;5056133;28;20047;-56
2023/12/25 05:34:44;;;;;;;257.70;151.48;;;;;;;12.32;100.00;97364.44;5055784;28;20067;-55
2023/12/25 05:37:10;;;;;;;108.65;33.83;;;;;;;11.84;100.00;97355.78;5056161;28;20044;-55
2023/12/25 05:39:35;;;;;;;126.50;73.30;;;;;;;11.77;100.00;97341.97;5055583;28;20028;-56
2023/12/25 05:42:00;;;;;;;273.55;203.52;;;;;;;11.96;100.00;97345.09;5054734;28;20266;-55
2023/12/25 05:44:26;;;;;;;254.90;191.50;;;;;;;12.15;100.00;97350.00;5057969;28;20020;-55
2023/12/25 05:46:51;;;;;;;129.45;18.67;;;;;;;11.80;100.00;97347.13;5052553;28;20084;-55
2023/12/25 05:49:16;;;;;;;128.82;36.22;;;;;;;12.10;100.00;97355.28;5057997;28;20578;-55
2023/12/25 05:51:41;;;;;;;273.08;206.02;;;;;;;12.18;100.00;97362.09;5055522;28;20087;-56
2023/12/25 05:54:07;;;;;;;220.43;197.23;;;;;;;12.03;100.00;97358.84;5055739;28;20036;-55
2023/12/25 05:56:32;;;;;;;173.77;120.45;;;;;;;11.98;100.00;97353.75;5055594;28;20036;-55
2023/12/25 05:58:58;;;;;;;103.38;62.08;;;;;;;11.76;100.00;97353.28;5055924;28;20035;-55
2023/12/25 06:01:25;;;;;;;176.30;129.05;;;;;;;12.11;100.00;97356.16;5056052;28;20567;-56
2023/12/25 06:03:51;;;;;;;124.55;18.75;;;;;;;12.04;100.00;97355.38;5055249;28;20610;-55
2023/12/25 06:06:17;;;;;;;120.85;74.03;;;;;;;11.59;100.00;97367.47;5057981;28;20032;-58
2023/12/25 06:08:43;;;;;;;159.20;87.63;;;;;;;11.79;100.00;97376.69;5055937;28;20028;-55
2023/12/25 06:11:08;;;;;;;135.23;78.93;;;;;;;11.81;100.00;97377.50;5055580;28;20127;-54
2023/12/25 06:13:34;;;;;;;286.80;230.32;;;;;;;12.10;100.00;97368.31;5056873;28;20434;-55
2023/12/25 06:16:00;;;;;;;144.70;85.20;;;;;;;12.11;100.00;97372.63;5054121;28;20467;-55
2023/12/25 06:18:25;;;;;;;249.48;159.52;;;;;;;12.41;100.00;97377.28;5055482;28;20073;-54
2023/12/25 06:20:50;;;;;;;136.20;61.80;;;;;;;12.10;100.00;97389.16;5052656;28;20045;-55
2023/12/25 06:23:16;;;;;;;130.15;84.10;;;;;;;11.98;100.00;97386.75;5056981;28;20020;-55
2023/12/25 06:25:41;;;;;;;322.65;254.85;;;;;;;12.51;100.00;97375.34;5054782;28;20396;-55
2023/12/25 06:28:06;;;;;;;197.75;165.40;;;;;;;12.21;100.00;97369.88;5055597;28;20781;-56
2023/12/25 06:30:32;;;;;;;131.90;60.88;;;;;;;12.15;100.00;97357.81;5053915;28;20045;-58
2023/12/25 06:32:57;;;;;;;105.97;35.90;;;;;;;12.65;100.00;97362.00;5051878;28;20333;-54
2023/12/25 06:35:23;;;;;;;94.75;33.60;;;;;;;12.11;100.00;97364.81;5056311;28;20025;-56
2023/12/25 06:37:48;;;;;;;202.15;123.47;;;;;;;12.43;100.00;97362.44;5054408;28;20029;-56
2023/12/25 06:40:13;;;;;;;154.43;92.38;;;;;;;12.05;100.00;97362.34;5049162;28;20059;-57
2023/12/25 06:42:39;;;;;;;264.20;209.95;;;;;;;12.06;100.00;97364.06;5054732;28;20082;-56
2023/12/25 06:45:08;;;;;;;187.85;96.28;;;;;;;12.80;100.00;97367.78;5054769;28;20020;-55
2023/12/25 06:47:34;;;;;;;201.02;158.35;;;;;;;12.58;100.00;97376.06;5056156;28;20020;-54
2023/12/25 06:49:59;;;;;;;188.48;123.45;;;;;;;12.53;100.00;97377.91;5053461;28;20050;-54
2023/12/25 06:52:25;;;;;;;104.55;27.63;;;;;;;13.51;100.00;97383.56;5054419;28;20344;-56
2023/12/25 06:54:50;;;;;;;181.02;104.82;;;;;;;12.93;100.00;97381.41;5051849;28;20093;-55
2023/12/25 06:57:15;;;;;;;123.65;85.35;;;;;;;12.06;100.00;97374.47;5054443;28;20303;-56
2023/12/25 06:59:42;;;;;;;265.25;179.25;;;;;;;12.18;100.00;97372.53;5054327;28;20510;-55
2023/12/25 07:02:07;;;;;;;223.23;151.60;;;;;;;12.53;100.00;97365.72;5053675;28;20044;-55
2023/12/25 07:04:33;;;;;;;172.45;124.55;;;;;;;12.53;100.00;97370.06;5055909;28;20422;-56
2023/12/25 07:06:59;;;;;;;136.60;58.72;;;;;;;12.24;100.00;97375.88;5053316;28;20512;-56
2023/12/25 07:09:24;;;;;;;378.65;216.82;;;;;;;12.14;100.00;97373.47;5053523;28;20036;-58
2023/12/25 07:11:50;;;;;;;255.18;169.05;;;;;;;11.66;100.00;97380.41;5053158;28;20060;-57
2023/12/25 07:14:15;;;;;;;138.63;92.75;;;;;;;12.13;100.00;97392.63;5055228;28;20047;-57
2023/12/25 07:16:40;;;;;;;252.13;218.27;;;;;;;11.97;100.00;97379.84;5053640;28;20072;-55
2023/12/25 07:19:06;;;;;;;118.40;69.30;;;;;;;11.94;100.00;97385.09;5054349;28;20131;-55
2023/12/25 07:21:31;;;;;;;144.35;95.75;;;;;;;11.95;100.00;97392.06;5054735;28;20033;-57
2023/12/25 07:23:58;;;;;;;174.57;56.67;;;;;;;12.36;100.00;97398.22;5053397;28;20203;-55
2023/12/25 07:26:23;;;;;;;235.77;145.65;;;;;;;12.79;100.00;97406.06;5054247;28;20223;-56
2023/12/25 07:28:49;;;;;;;120.90;41.30;;;;;;;12.31;100.00;97423.53;5054369;28;20262;-55
2023/12/25 07:31:15;;;;;;;72.78;12.15;;;;;;;12.06;100.00;97437.03;5053207;28;20041;-55
2023/12/25 07:33:41;;;;;;;108.43;76.05;;;;;;;12.15;100.00;97420.38;5052724;28;20048;-56
2023/12/25 07:36:06;;;;;;;99.45;14.40;;;;;;;12.21;100.00;97432.44;5053918;28;20041;-55
2023/12/25 07:38:32;;;;;;;103.20;32.88;;;;;;;11.67;100.00;97434.22;5053478;28;20225;-56
2023/12/25 07:40:57;;;;;;;113.07;18.52;;;;;;;11.82;100.00;97441.78;5052820;28;20043;-55
2023/12/25 07:43:24;;;;;;;86.93;18.55;;;;;;;11.79;100.00;97441.81;5055505;28;20025;-56
2023/12/25 07:45:49;;;;;;;263.55;188.60;;;;;;;12.30;100.00;97444.44;5053333;28;20075;-57
2023/12/25 07:48:16;;;;;;;110.28;58.35;;;;;;;11.68;100.00;97459.38;5053642;28;20107;-56
2023/12/25 07:50:41;;;;;;;225.35;181.07;;;;;;;11.97;100.00;97455.41;5052750;28;20075;-55
2023/12/25 07:53:07;;;;;;;118.43;76.75;;;;;;;11.65;100.00;97454.22;5052053;28;20058;-55
2023/12/25 07:55:35;;;;;;;185.73;147.90;;;;;;;11.88;100.00;97448.59;5053805;28;20124;-57
2023/12/25 07:58:00;;;;;;;146.27;70.82;;;;;;;11.78;100.00;97442.72;5052983;28;20016;-57
2023/12/25 08:00:25;;;;;;;89.10;29.80;;;;;;;11.82;100.00;97457.41;5053163;28;20476;-58
2023/12/25 08:02:52;;;;;;;203.45;173.68;;;;;;;12.39;100.00;97465.09;5051437;28;20128;-56
2023/12/25 08:05:18;;;;;;;334.58;301.08;;;;;;;12.31;100.00;97464.38;5054736;28;20094;-58
2023/12/25 08:07:44;;;;;;;119.70;49.60;;;;;;;11.49;100.00;97457.06;5057549;28;20028;-57
2023/12/25 08:10:11;;;;;;;128.38;68.93;;;;;;;11.51;100.00;97463.09;5058107;28;20229;-57
2023/12/25 08:12:36;;;;;;;162.80;113.28;;;;;;;11.63;100.00;97476.81;5057931;28;20027;-58
2023/12/25 08:15:02;;;;;;;101.15;26.02;;;;;;;12.16;100.00;97484.66;5057421;28;20301;-56
2023/12/25 08:17:27;;;;;;;144.63;80.72;;;;;;;12.05;100.00;97477.03;5057587;28;20044;-58
2023/12/25 08:19:53;;;;;;;270.85;176.82;;;;;;;12.60;100.00;97476.88;5056704;28;20107;-56
2023/12/25 08:22:18;;;;;;;231.30;197.13;;;;;;;13.39;100.00;97469.13;5058278;28;20453;-57
2023/12/25 08:24:44;;;;;;;118.85;53.75;;;;;;;12.63;100.00;97474.19;5058035;28;20311;-57
2023/12/25 08:27:09;;;;;;;202.27;133.63;;;;;;;12.94;100.00;97471.84;5056982;28;20432;-58
2023/12/25 08:29:34;;;;;;;95.60;25.35;;;;;;;11.74;100.00;97477.53;5058736;28;20025;-56
2023/12/25 08:32:00;;;;;;;190.18;83.95;;;;;;;11.58;100.00;97485.56;5054905;28;20049;-57
2023/12/25 08:34:25;;;;;;;134.15;74.82;;;;;;;11.28;100.00;97482.53;5058266;28;20029;-57
2023/12/25 08:36:50;;;;;;;166.38;81.78;;;;;;;11.16;100.00;97480.97;5056635;28;20389;-57
2023/12/25 08:39:16;;;;;;;115.88;13.88;;;;;;;10.97;100.00;97493.38;5058035;28;20027;-57
2023/12/25 08:41:42;;;;;;;168.55;98.88;;;;;;;10.89;100.00;97488.28;5057822;28;20033;-57
2023/12/25 08:44:08;;;;;;;279.58;185.98;;;;;;;12.31;100.00;97493.06;5057236;28;20367;-57
2023/12/25 08:46:34;;;;;;;146.52;100.43;;;;;;;12.79;100.00;97494.78;5058194;28;20032;-57
2023/12/25 08:48:59;;;;;;;188.45;43.63;;;;;;;11.88;100.00;97500.72;5056698;28;20558;-58
2023/12/25 08:51:25;;;;;;;121.05;66.18;;;;;;;13.24;100.00;97503.41;5056868;28;20036;-57
2023/12/25 08:53:50;;;;;;;191.07;132.27;;;;;;;16.53;100.00;97502.94;5056766;28;20112;-57
2023/12/25 08:56:24;;;;;;;145.23;74.47;;;;;;;16.48;100.00;97515.38;5056839;28;20119;-58
2023/12/25 08:58:49;;;;;;;204.30;122.10;;;;;;;16.37;100.00;97507.88;5056202;28;20503;-58
2023/12/25 09:01:15;;;;;;;106.22;17.80;;;;;;;12.99;100.00;97511.78;5052160;28;20083;-58
2023/12/25 09:03:40;;;;;;;225.13;185.70;;;;;;;12.33;100.00;97513.00;5054308;28;20710;-59
2023/12/25 09:06:06;;;;;;;177.93;135.25;;;;;;;11.66;100.00;97516.69;5058545;28;20034;-57
2023/12/25 09:08:32;;;;;;;150.77;114.72;;;;;;;11.62;100.00;97515.03;5061680;28;20021;-59
2023/12/25 09:10:57;;;;;;;232.07;176.57;;;;;;;11.49;100.00;97508.28;5057952;28;20032;-59
2023/12/25 09:13:22;;;;;;;62.83;11.10;;;;;;;11.16;100.00;97514.81;5062278;28;20024;-59
2023/12/25 09:15:48;;;;;;;94.70;32.05;;;;;;;11.37;100.00;97517.13;5059895;28;20647;-60
2023/12/25 09:18:13;;;;;;;55.28;8.35;;;;;;;11.37;100.00;97517.13;5060906;28;20444;-58
2023/12/25 09:20:38;;;;;;;253.60;226.45;;;;;;;11.51;100.00;97506.53;5060876;28;20606;-59
2023/12/25 09:23:04;;;;;;;162.98;139.40;;;;;;;11.81;100.00;97523.41;5059078;28;20040;-59
2023/12/25 09:25:29;;;;;;;183.20;146.20;;;;;;;12.41;100.00;97507.69;5061386;28;20032;-58
2023/12/25 09:27:54;;;;;;;175.07;123.18;;;;;;;11.76;100.00;97504.38;5060068;28;20258;-59
2023/12/25 09:30:20;;;;;;;169.95;147.30;;;;;;;12.59;100.00;97506.44;5060887;28;20388;-59
2023/12/25 09:32:45;;;;;;;172.20;110.85;;;;;;;11.71;100.00;97512.28;5059683;28;20146;-57
2023/12/25 09:35:12;;;;;;;206.52;185.15;;;;;;;11.95;100.00;97507.56;5059454;28;20134;-59
2023/12/25 09:37:37;;;;;;;156.45;138.10;;;;;;;12.46;100.00;97508.44;5060791;28;20161;-59
2023/12/25 09:40:03;;;;;;;279.65;187.82;;;;;;;12.51;100.00;97510.97;5057811;28;20147;-57
2023/12/25 09:42:29;;;;;;;173.68;134.52;;;;;;;12.71;100.00;97507.13;5059624;28;20214;-59
2023/12/25 09:44:55;;;;;;;149.85;82.90;;;;;;;12.78;100.00;97506.09;5059349;28;20028;-58
2023/12/25 09:47:20;;;;;;;179.27;135.57;;;;;;;12.47;100.00;97510.16;5060912;28;20036;-58
2023/12/25 09:49:46;;;;;;;87.47;42.78;;;;;;;12.58;100.00;97525.59;5058298;28;20032;-59
2023/12/25 09:52:13;;;;;;;80.18;41.63;;;;;;;12.49;100.00;97528.41;5060054;28;20429;-57
2023/12/25 09:54:40;;;;;;;254.63;157.93;;;;;;;13.13;100.00;97514.09;5061553;28;20116;-59
2023/12/25 09:57:06;;;;;;;190.50;93.35;;;;;;;12.61;100.00;97527.28;5058939;28;20094;-59
2023/12/25 09:59:33;;;;;;;173.70;125.22;;;;;;;12.77;100.00;97522.66;5061302;28;20101;-59
2023/12/25 10:02:02;;;;;;;206.35;96.82;;;;;;;10.32;100.00;97520.09;5054426;28;20028;-59
2023/12/25 10:04:30;;;;;;;273.85;244.68;;;;;;;9.57;100.00;97528.50;5059971;28;20418;-58
2023/12/25 10:06:55;;;;;;;245.02;119.25;;;;;;;9.40;100.00;97520.81;5058738;28;20111;-59
2023/12/25 10:09:20;;;;;;;359.98;287.20;;;;;;;9.30;100.00;97526.06;5059860;28;20025;-60
2023/12/25 10:11:45;;;;;;;196.60;148.63;;;;;;;9.25;100.00;97527.81;5060142;28;20072;-59
2023/12/25 10:14:11;;;;;;;399.05;295.13;;;;;;;9.14;100.00;97521.81;5058596;28;20130;-59
2023/12/25 10:16:36;;;;;;;150.23;109.47;;;;;;;9.05;100.00;97514.97;5060666;28;20361;-57
2023/12/25 10:19:02;;;;;;;319.13;203.43;;;;;;;9.04;100.00;97518.41;5057875;28;20484;-56
2023/12/25 10:21:40;;;;;;;473.88;356.50;;;;;;;8.99;100.00;97521.88;5059409;28;20420;-58
2023/12/25 10:24:15;;;;;;;301.63;198.98;;;;;;;8.98;100.00;97519.28;5057122;28;20024;-57
2023/12/25 10:26:43;;;;;;;379.95;264.67;;;;;;;8.95;100.00;97522.75;5060581;28;20040;-58
2023/12/25 10:29:09;;;;;;;201.85;159.32;;;;;;;9.03;100.00;97514.09;5057793;28;20040;-57
2023/12/25 10:31:38;;;;;;;74.03;35.25;;;;;;;9.53;100.00;97500.84;5058774;28;20029;-59
2023/12/25 10:34:03;;;;;;;135.60;34.00;;;;;;;9.94;100.00;97503.97;5059474;28;20640;-59
2023/12/25 10:36:28;;;;;;;67.30;27.80;;;;;;;10.21;100.00;97508.03;5060711;28;20648;-57
2023/12/25 10:38:54;;;;;;;121.07;41.30;;;;;;;10.41;100.00;97502.66;5059149;28;20029;-59
2023/12/25 10:41:27;;;;;;;95.38;49.50;;;;;;;10.51;100.00;97518.19;5059792;28;20037;-59
2023/12/25 10:43:58;;;;;;;80.50;20.58;;;;;;;10.52;100.00;97507.78;5058848;28;20021;-58
2023/12/25 10:46:26;;;;;;;168.95;136.50;;;;;;;10.35;100.00;97509.66;5059518;28;20037;-58
2023/12/25 10:48:53;;;;;;;73.80;37.50;;;;;;;10.46;100.00;97523.44;5058742;28;20042;-58
2023/12/25 10:51:24;;;;;;;85.28;47.40;;;;;;;10.49;100.00;97520.81;5059232;28;20504;-59
2023/12/25 10:53:50;;;;;;;72.97;42.83;;;;;;;10.68;100.00;97511.06;5057403;28;20119;-57